Time;durP1;ratioP1;P1;durP2;ratioP2;P2;SDS_P1;SDS_P2;PMS_P1;PMS_P2;Temp;Humidity;BMP_temperature;BMP_pressure;BME280_temperature;BME280_humidity;BME280_pressure;Samples;Min_cycle;Max_cycle;Signal;HPM_P1;HPM_P2
2020/12/21 00:01:42;;;;;;;1.52;1.42;;;7.60;99.90;;;;;;4107977;28;20049;-84
2020/12/21 00:03:44;;;;;;;2.28;1.60;;;7.60;99.90;;;;;;4123505;28;20046;-84
2020/12/21 00:05:45;;;;;;;1.30;1.05;;;7.60;99.90;;;;;;4084412;28;20429;-85
2020/12/21 00:07:46;;;;;;;1.48;0.93;;;7.60;99.90;;;;;;4086765;28;20423;-84
2020/12/21 00:09:48;;;;;;;5.07;2.92;;;7.60;99.90;;;;;;4107742;28;20142;-84
2020/12/21 00:11:49;;;;;;;2.38;1.90;;;7.50;99.90;;;;;;4084484;28;20126;-84
2020/12/21 00:13:50;;;;;;;1.27;1.17;;;7.50;99.90;;;;;;4123342;28;20057;-84
2020/12/21 00:15:52;;;;;;;1.80;1.70;;;7.50;99.90;;;;;;4124156;28;20058;-84
2020/12/21 00:17:53;;;;;;;2.33;1.55;;;7.50;99.90;;;;;;4099258;28;20058;-84
2020/12/21 00:19:55;;;;;;;2.53;2.33;;;7.50;99.90;;;;;;4099967;28;20043;-84
2020/12/21 00:21:56;;;;;;;1.83;0.68;;;7.50;99.90;;;;;;4118592;28;20404;-84
2020/12/21 00:23:57;;;;;;;3.70;1.35;;;7.50;99.90;;;;;;4099684;28;20050;-84
2020/12/21 00:25:59;;;;;;;3.55;2.40;;;7.60;99.90;;;;;;4099537;28;20043;-84
2020/12/21 00:28:00;;;;;;;2.17;1.85;;;7.60;99.90;;;;;;4095992;28;20043;-84
2020/12/21 00:30:04;;;;;;;4.72;1.80;;;7.60;99.90;;;;;;4115776;28;20062;-84
2020/12/21 00:32:05;;;;;;;4.22;1.08;;;7.70;99.90;;;;;;4099695;28;20061;-84
2020/12/21 00:34:06;;;;;;;1.80;1.15;;;7.70;99.90;;;;;;4114058;28;20550;-84
2020/12/21 00:36:08;;;;;;;0.45;0.40;;;7.70;99.90;;;;;;4097766;28;20603;-84
2020/12/21 00:38:09;;;;;;;5.65;1.23;;;7.70;99.90;;;;;;4099250;28;20059;-84
2020/12/21 00:40:10;;;;;;;2.17;1.17;;;7.70;99.90;;;;;;4115334;28;20039;-84
2020/12/21 00:42:12;;;;;;;1.77;1.60;;;7.70;99.90;;;;;;4115134;28;20061;-84
2020/12/21 00:44:13;;;;;;;1.13;0.90;;;7.60;99.90;;;;;;4102992;28;20061;-85
2020/12/21 00:46:20;;;;;;;6.00;2.00;;;7.70;99.90;;;;;;4111116;28;20062;-84
2020/12/21 00:48:21;;;;;;;15.75;2.97;;;7.50;99.90;;;;;;4098270;28;20050;-84
2020/12/21 00:50:23;;;;;;;6.97;1.90;;;7.50;99.90;;;;;;4087059;28;20056;-84
2020/12/21 00:52:24;;;;;;;2.85;1.63;;;7.60;99.90;;;;;;4096080;28;20044;-84
2020/12/21 00:54:25;;;;;;;2.97;1.40;;;7.60;99.90;;;;;;4098940;28;20079;-85
2020/12/21 00:56:27;;;;;;;3.15;1.58;;;7.60;99.90;;;;;;4102503;28;20051;-84
2020/12/21 00:58:29;;;;;;;0.50;0.50;;;7.60;99.90;;;;;;4112088;28;20057;-84
2020/12/21 01:00:31;;;;;;;1.30;1.20;;;7.60;99.90;;;;;;4111555;28;20055;-84
2020/12/21 01:02:32;;;;;;;4.15;1.13;;;7.60;99.90;;;;;;4115396;28;20499;-84
2020/12/21 01:04:33;;;;;;;4.47;2.72;;;7.60;99.90;;;;;;4102785;28;20062;-84
2020/12/21 01:06:35;;;;;;;1.48;1.10;;;7.60;99.90;;;;;;4113705;28;20434;-84
2020/12/21 01:08:36;;;;;;;1.15;1.05;;;7.70;99.90;;;;;;4115621;28;20058;-84
2020/12/21 01:10:38;;;;;;;2.38;2.17;;;7.70;99.90;;;;;;4098611;28;20054;-84
2020/12/21 01:12:40;;;;;;;1.42;1.17;;;7.70;99.90;;;;;;4098960;28;20043;-84
2020/12/21 01:14:41;;;;;;;1.08;0.95;;;7.60;99.90;;;;;;4115243;28;20125;-84
2020/12/21 01:16:42;;;;;;;1.88;1.77;;;7.50;99.90;;;;;;4114809;28;20141;-84
2020/12/21 01:18:44;;;;;;;1.45;1.23;;;7.60;99.90;;;;;;4094632;28;20550;-84
2020/12/21 01:20:45;;;;;;;4.43;1.48;;;7.60;99.90;;;;;;4114216;28;20058;-83
2020/12/21 01:22:46;;;;;;;3.15;2.42;;;7.70;99.90;;;;;;4086453;29;20048;-84
2020/12/21 01:24:48;;;;;;;1.65;1.55;;;7.60;99.90;;;;;;4122829;28;20042;-84
2020/12/21 01:26:49;;;;;;;4.88;0.98;;;7.70;99.90;;;;;;4083402;29;20490;-84
2020/12/21 01:28:50;;;;;;;1.75;1.13;;;7.60;99.90;;;;;;4106102;28;20050;-84
2020/12/21 01:30:53;;;;;;;1.50;0.57;;;7.60;99.90;;;;;;4091101;28;20079;-84
2020/12/21 01:32:54;;;;;;;0.75;0.63;;;7.60;99.90;;;;;;4098723;28;20051;-83
2020/12/21 01:34:55;;;;;;;3.85;2.47;;;7.70;99.90;;;;;;4089888;29;20054;-85
2020/12/21 01:36:57;;;;;;;4.57;1.95;;;7.70;99.90;;;;;;4123764;28;20061;-85
2020/12/21 01:38:58;;;;;;;1.30;1.10;;;7.70;99.90;;;;;;4114896;28;20146;-84
2020/12/21 01:41:00;;;;;;;2.78;1.30;;;7.70;99.90;;;;;;4118657;28;20053;-84
2020/12/21 01:43:01;;;;;;;0.45;0.45;;;7.80;99.90;;;;;;4106547;28;20054;-85
2020/12/21 01:45:06;;;;;;;2.13;0.77;;;7.80;99.90;;;;;;4084976;28;20088;-84
2020/12/21 01:47:07;;;;;;;3.40;1.17;;;7.80;99.90;;;;;;4098883;28;20169;-84
2020/12/21 01:49:09;;;;;;;1.38;1.15;;;7.70;99.90;;;;;;4119713;28;20063;-84
2020/12/21 01:51:24;;;;;;;3.90;0.93;;;7.70;99.90;;;;;;4100550;28;20053;-84
2020/12/21 01:53:25;;;;;;;1.92;1.15;;;7.70;99.90;;;;;;4113001;28;20054;-84
2020/12/21 01:55:26;;;;;;;4.60;2.45;;;7.70;99.90;;;;;;4097776;28;20567;-84
2020/12/21 01:57:27;;;;;;;2.03;1.73;;;7.70;99.90;;;;;;4098330;28;20050;-84
2020/12/21 01:59:29;;;;;;;2.58;1.95;;;7.80;99.90;;;;;;4098528;28;20051;-84
2020/12/21 02:01:30;;;;;;;1.35;1.25;;;7.80;99.90;;;;;;4108975;28;20054;-84
2020/12/21 02:03:31;;;;;;;1.38;0.93;;;7.80;99.90;;;;;;4129983;28;20042;-84
2020/12/21 02:05:33;;;;;;;1.55;1.35;;;7.80;99.90;;;;;;4130591;28;20141;-85
2020/12/21 02:07:34;;;;;;;1.90;1.30;;;7.70;99.90;;;;;;4093834;29;20053;-84
2020/12/21 02:09:35;;;;;;;3.60;1.88;;;7.80;99.90;;;;;;4109816;28;20077;-84
2020/12/21 02:11:40;;;;;;;2.63;1.90;;;7.70;99.90;;;;;;4097476;28;20050;-84
2020/12/21 02:13:41;;;;;;;;;;;7.70;99.90;;;;;;4098244;28;20048;-84
2020/12/21 02:15:43;;;;;;;2.08;0.88;;;7.70;99.90;;;;;;4111018;28;19926;-85
2020/12/21 02:17:45;;;;;;;2.60;0.55;;;7.70;99.90;;;;;;4098492;28;20145;-84
2020/12/21 02:19:46;;;;;;;0.55;0.55;;;7.70;99.90;;;;;;4090013;29;20044;-84
2020/12/21 02:21:47;;;;;;;1.20;1.10;;;7.70;99.90;;;;;;4122213;28;20051;-84
2020/12/21 02:23:49;;;;;;;3.78;1.83;;;7.70;99.90;;;;;;4082882;28;20086;-84
2020/12/21 02:25:50;;;;;;;3.13;1.20;;;7.60;99.90;;;;;;4093670;28;20595;-84
2020/12/21 02:27:51;;;;;;;3.95;2.95;;;7.50;99.90;;;;;;4129537;28;20050;-84
2020/12/21 02:29:53;;;;;;;1.58;1.48;;;7.50;99.90;;;;;;4114705;28;20057;-84
2020/12/21 02:31:54;;;;;;;1.63;1.52;;;7.50;99.90;;;;;;4105156;28;20055;-84
2020/12/21 02:33:55;;;;;;;1.42;1.20;;;7.30;99.90;;;;;;4106251;28;20495;-84
2020/12/21 02:35:57;;;;;;;4.22;1.35;;;7.10;99.90;;;;;;4099280;28;20542;-84
2020/12/21 02:37:58;;;;;;;1.55;0.93;;;7.10;99.90;;;;;;4113476;28;20587;-84
2020/12/21 02:39:59;;;;;;;5.80;2.35;;;7.10;99.90;;;;;;4096184;29;20053;-84
2020/12/21 02:42:00;;;;;;;7.82;2.30;;;7.10;99.90;;;;;;4115480;28;20051;-84
2020/12/21 02:44:02;;;;;;;2.60;1.25;;;7.10;99.90;;;;;;4120141;28;20466;-85
2020/12/21 02:46:07;;;;;;;1.60;1.48;;;7.10;99.90;;;;;;4108485;28;20066;-84
2020/12/21 02:48:08;;;;;;;2.35;1.00;;;7.10;99.90;;;;;;4095802;28;20051;-84
2020/12/21 02:50:09;;;;;;;2.17;2.00;;;7.10;99.90;;;;;;4097302;28;20074;-85
2020/12/21 02:52:10;;;;;;;2.65;1.17;;;7.20;99.90;;;;;;4125185;28;20062;-84
2020/12/21 02:54:12;;;;;;;4.70;2.45;;;7.20;99.90;;;;;;4113799;28;20182;-84
2020/12/21 02:56:13;;;;;;;4.93;2.58;;;7.10;99.90;;;;;;4098561;28;20086;-84
2020/12/21 02:58:17;;;;;;;5.03;2.63;;;7.10;99.90;;;;;;4123123;28;20042;-84
2020/12/21 03:00:18;;;;;;;1.83;1.63;;;7.10;99.90;;;;;;4101880;28;20047;-84
2020/12/21 03:02:19;;;;;;;1.38;1.23;;;7.20;99.90;;;;;;4098081;28;20063;-84
2020/12/21 03:04:21;;;;;;;2.03;1.83;;;7.20;99.90;;;;;;4113677;28;20047;-84
2020/12/21 03:06:22;;;;;;;3.33;1.40;;;7.20;99.90;;;;;;4097852;28;20047;-84
2020/12/21 03:08:24;;;;;;;1.70;1.23;;;7.20;99.90;;;;;;4101042;28;20051;-84
2020/12/21 03:10:25;;;;;;;3.67;1.15;;;7.20;99.90;;;;;;4112051;28;20051;-84
2020/12/21 03:12:26;;;;;;;2.50;1.15;;;7.10;99.90;;;;;;4097494;28;20504;-84
2020/12/21 03:14:27;;;;;;;1.20;1.20;;;7.00;99.90;;;;;;4101080;28;20055;-84
2020/12/21 03:16:29;;;;;;;5.25;2.65;;;7.10;99.90;;;;;;4124495;28;20043;-84
2020/12/21 03:18:30;;;;;;;1.70;0.90;;;7.00;99.90;;;;;;4122185;28;20073;-84
2020/12/21 03:20:31;;;;;;;1.75;1.58;;;7.10;99.90;;;;;;4103188;28;20051;-84
2020/12/21 03:22:33;;;;;;;1.63;1.52;;;7.10;99.90;;;;;;4110155;28;20439;-84
2020/12/21 03:24:34;;;;;;;2.38;1.60;;;7.00;99.90;;;;;;4113935;28;20054;-84
2020/12/21 03:26:35;;;;;;;0.95;0.70;;;7.00;99.90;;;;;;4116788;28;20073;-84
2020/12/21 03:28:36;;;;;;;8.55;0.82;;;7.10;99.90;;;;;;4109537;28;20051;-83
2020/12/21 03:30:38;;;;;;;0.45;0.45;;;7.10;99.90;;;;;;4091675;28;20106;-84
2020/12/21 03:32:40;;;;;;;2.25;1.33;;;7.10;99.90;;;;;;4100665;28;20051;-84
2020/12/21 03:34:58;;;;;;;2.70;1.10;;;7.10;99.90;;;;;;4118373;28;20042;-84
2020/12/21 03:36:59;;;;;;;0.57;0.52;;;7.10;99.90;;;;;;4125888;28;20145;-84
2020/12/21 03:39:00;;;;;;;1.27;0.57;;;7.10;99.90;;;;;;4116225;28;20061;-84
2020/12/21 03:41:02;;;;;;;0.73;0.73;;;7.00;99.90;;;;;;4116266;28;20065;-84
2020/12/21 03:43:04;;;;;;;2.15;0.90;;;7.10;99.90;;;;;;4090999;28;20440;-84
2020/12/21 03:45:05;;;;;;;1.90;1.42;;;7.00;99.90;;;;;;4118840;28;20598;-84
2020/12/21 03:47:06;;;;;;;0.30;0.28;;;7.10;99.90;;;;;;4100235;28;20130;-82
2020/12/21 03:49:07;;;;;;;1.95;1.67;;;7.10;99.90;;;;;;4092893;28;20493;-84
2020/12/21 03:51:09;;;;;;;2.05;0.95;;;7.10;99.90;;;;;;4097808;28;20462;-84
2020/12/21 03:53:10;;;;;;;0.80;0.70;;;7.10;99.90;;;;;;4089527;29;20258;-84
2020/12/21 03:55:11;;;;;;;2.35;1.05;;;7.10;99.90;;;;;;4120894;28;20130;-84
2020/12/21 03:57:13;;;;;;;2.28;1.23;;;7.20;99.90;;;;;;4117438;28;20586;-84
2020/12/21 03:59:14;;;;;;;1.58;1.15;;;7.20;99.90;;;;;;4104060;28;20051;-84
2020/12/21 04:01:16;;;;;;;1.60;1.50;;;7.20;99.90;;;;;;4111569;28;20050;-84
2020/12/21 04:03:17;;;;;;;5.05;2.63;;;7.20;99.90;;;;;;4099572;28;20091;-84
2020/12/21 04:05:21;;;;;;;1.05;0.60;;;7.20;99.90;;;;;;4116433;28;20574;-84
2020/12/21 04:07:23;;;;;;;1.70;0.90;;;7.20;99.90;;;;;;4112474;28;20133;-84
2020/12/21 04:09:24;;;;;;;2.05;1.75;;;7.20;99.90;;;;;;4104994;28;20046;-85
2020/12/21 04:11:25;;;;;;;3.47;2.25;;;7.20;99.90;;;;;;4100001;28;20579;-84
2020/12/21 04:13:26;;;;;;;3.42;0.85;;;7.10;99.90;;;;;;4115211;28;20450;-84
2020/12/21 04:15:48;;;;;;;3.42;1.13;;;7.10;99.90;;;;;;4115607;28;20042;-84
2020/12/21 04:17:49;;;;;;;2.28;1.25;;;7.10;99.90;;;;;;4100010;28;20552;-84
2020/12/21 04:19:50;;;;;;;3.90;1.60;;;7.10;99.90;;;;;;4131821;28;20062;-84
2020/12/21 04:21:51;;;;;;;1.58;1.17;;;7.10;99.90;;;;;;4130727;28;20054;-84
2020/12/21 04:23:53;;;;;;;1.95;1.73;;;7.10;99.90;;;;;;4100188;28;20054;-84
2020/12/21 04:25:54;;;;;;;3.60;2.05;;;7.20;99.90;;;;;;4107076;28;20054;-84
2020/12/21 04:27:56;;;;;;;1.85;1.67;;;7.20;99.90;;;;;;4124349;28;20112;-84
2020/12/21 04:29:57;;;;;;;1.42;1.33;;;7.20;99.90;;;;;;4099498;28;20058;-84
2020/12/21 04:31:58;;;;;;;1.92;1.83;;;7.20;99.90;;;;;;4115799;28;20047;-84
2020/12/21 04:33:59;;;;;;;2.38;1.73;;;7.20;99.90;;;;;;4110506;28;20462;-85
2020/12/21 04:36:01;;;;;;;2.90;2.65;;;7.20;99.90;;;;;;4099769;28;20401;-83
2020/12/21 04:38:03;;;;;;;3.55;1.30;;;7.20;99.90;;;;;;4115374;28;20438;-83
2020/12/21 04:40:04;;;;;;;3.78;1.25;;;7.20;99.90;;;;;;4110645;28;20055;-83
2020/12/21 04:42:06;;;;;;;5.05;2.58;;;7.10;99.90;;;;;;4085734;28;20063;-83
2020/12/21 04:44:07;;;;;;;2.78;1.98;;;7.20;99.90;;;;;;4099776;28;20054;-84
2020/12/21 04:46:09;;;;;;;2.85;2.33;;;7.20;99.90;;;;;;4105818;28;20546;-83
2020/12/21 04:48:15;;;;;;;2.00;1.80;;;7.10;99.90;;;;;;4087616;28;20051;-83
2020/12/21 04:50:17;;;;;;;1.77;1.55;;;7.10;99.90;;;;;;4095898;28;20058;-84
2020/12/21 04:52:18;;;;;;;2.30;1.48;;;7.10;99.90;;;;;;4104560;28;20050;-84
2020/12/21 04:54:20;;;;;;;1.80;1.20;;;7.20;99.90;;;;;;4098272;28;20074;-84
2020/12/21 04:56:21;;;;;;;2.22;1.75;;;7.20;99.90;;;;;;4115172;28;20055;-85
2020/12/21 04:58:22;;;;;;;2.78;1.20;;;7.20;99.90;;;;;;4107388;28;20170;-84
2020/12/21 05:00:27;;;;;;;0.80;0.63;;;7.10;99.90;;;;;;4102638;28;20053;-84
2020/12/21 05:02:28;;;;;;;;;;;7.20;99.90;;;;;;4100215;28;20047;-84
2020/12/21 05:04:30;;;;;;;1.45;1.42;;;7.10;99.90;;;;;;4146805;28;19925;-84
2020/12/21 05:06:31;;;;;;;2.53;1.33;;;7.20;99.90;;;;;;4114536;28;20108;-84
2020/12/21 05:08:33;;;;;;;1.63;0.85;;;7.10;99.90;;;;;;4129494;28;20538;-84
2020/12/21 05:10:38;;;;;;;2.08;1.50;;;7.10;99.90;;;;;;4098673;28;20496;-84
2020/12/21 05:12:39;;;;;;;2.58;2.42;;;7.10;99.90;;;;;;4095977;28;20047;-84
2020/12/21 05:14:40;;;;;;;1.10;1.00;;;7.10;99.90;;;;;;4114117;28;20201;-85
2020/12/21 05:16:41;;;;;;;2.63;1.17;;;7.00;99.90;;;;;;4094641;28;20047;-85
2020/12/21 05:18:43;;;;;;;3.03;2.35;;;7.00;99.90;;;;;;4130619;28;20054;-84
2020/12/21 05:20:53;;;;;;;4.53;2.75;;;7.00;99.90;;;;;;4114782;28;20055;-83
2020/12/21 05:22:54;;;;;;;0.82;0.70;;;6.90;99.90;;;;;;4105605;28;20108;-84
2020/12/21 05:25:08;;;;;;;2.45;1.55;;;6.90;99.90;;;;;;4092059;28;20146;-84
2020/12/21 05:27:15;;;;;;;0.90;0.88;;;6.80;99.90;;;;;;4114535;28;20057;-84
2020/12/21 05:29:26;;;;;;;1.38;1.00;;;6.80;99.90;;;;;;4126572;28;20098;-84
2020/12/21 05:31:28;;;;;;;1.35;0.95;;;6.80;99.90;;;;;;4097588;28;20142;-85
2020/12/21 05:33:31;;;;;;;1.25;1.25;;;6.90;99.90;;;;;;4114666;28;20400;-84
2020/12/21 05:35:32;;;;;;;1.73;1.05;;;6.90;99.90;;;;;;4114654;28;20090;-84
2020/12/21 05:37:35;;;;;;;1.02;0.93;;;6.90;99.90;;;;;;4111149;28;20058;-84
2020/12/21 05:39:53;;;;;;;2.13;1.42;;;6.90;99.90;;;;;;4097956;28;20047;-83
2020/12/21 05:41:55;;;;;;;2.30;1.77;;;6.90;99.90;;;;;;4084596;28;20056;-85
2020/12/21 05:44:03;;;;;;;3.00;2.40;;;6.90;99.90;;;;;;4114477;28;20521;-85
2020/12/21 05:46:08;;;;;;;2.65;1.63;;;7.00;99.90;;;;;;4114168;28;20531;-84
2020/12/21 05:48:09;;;;;;;;;;;7.00;99.90;;;;;;4114829;28;20523;-85
2020/12/21 05:50:11;;;;;;;4.03;1.77;;;7.00;99.90;;;;;;4113753;28;20374;-84
2020/12/21 05:52:16;;;;;;;2.92;1.83;;;7.10;99.90;;;;;;4097910;28;20051;-84
2020/12/21 05:54:18;;;;;;;2.05;1.15;;;7.00;99.90;;;;;;4098018;28;20050;-84
2020/12/21 05:56:20;;;;;;;2.47;2.10;;;7.00;99.90;;;;;;4098641;28;20047;-84
2020/12/21 05:58:21;;;;;;;1.70;1.55;;;7.00;99.90;;;;;;4107657;28;20530;-85
2020/12/21 06:00:23;;;;;;;1.40;1.08;;;7.00;99.90;;;;;;4113970;28;20047;-85
2020/12/21 06:02:24;;;;;;;1.17;1.17;;;7.00;99.90;;;;;;4127238;28;20059;-84
2020/12/21 06:04:27;;;;;;;1.02;1.00;;;6.90;99.90;;;;;;4106227;28;20085;-84
2020/12/21 06:06:35;;;;;;;1.80;1.70;;;6.90;99.90;;;;;;4105381;28;20062;-85
2020/12/21 06:08:37;;;;;;;1.25;1.10;;;6.90;99.90;;;;;;4084262;28;20130;-85
2020/12/21 06:10:41;;;;;;;2.17;1.73;;;6.90;99.90;;;;;;4097256;28;20055;-84
2020/12/21 06:12:45;;;;;;;2.38;1.55;;;6.90;99.90;;;;;;4121849;28;20533;-85
2020/12/21 06:14:48;;;;;;;1.65;1.48;;;6.90;99.90;;;;;;4082560;28;20054;-85
2020/12/21 06:16:49;;;;;;;1.25;0.77;;;6.90;99.90;;;;;;4096841;28;20415;-84
2020/12/21 06:19:04;;;;;;;2.10;0.60;;;6.90;99.90;;;;;;4112257;28;20070;-85
2020/12/21 06:21:05;;;;;;;1.50;1.17;;;6.90;99.90;;;;;;4098837;28;20051;-85
2020/12/21 06:23:09;;;;;;;2.03;1.38;;;6.90;99.90;;;;;;4098385;28;20051;-84
2020/12/21 06:25:10;;;;;;;2.13;1.55;;;6.90;99.90;;;;;;4091992;28;20047;-85
2020/12/21 06:27:13;;;;;;;2.08;1.17;;;6.90;99.90;;;;;;4085629;28;20427;-85
2020/12/21 06:29:20;;;;;;;0.80;0.80;;;6.90;99.90;;;;;;4114088;28;20055;-85
2020/12/21 06:31:21;;;;;;;2.20;1.73;;;6.90;99.90;;;;;;4092919;28;20537;-85
2020/12/21 06:33:22;;;;;;;2.10;1.67;;;6.90;99.90;;;;;;4117740;28;20054;-84
2020/12/21 06:35:24;;;;;;;1.20;0.65;;;6.90;99.90;;;;;;4127503;28;20512;-85
2020/12/21 06:37:25;;;;;;;0.55;0.55;;;6.90;99.90;;;;;;4111986;28;20054;-84
2020/12/21 06:39:26;;;;;;;2.13;1.92;;;6.90;99.90;;;;;;4111460;28;20580;-85
2020/12/21 06:41:36;;;;;;;1.75;1.52;;;6.90;99.90;;;;;;4115349;28;20085;-85
2020/12/21 06:43:39;;;;;;;0.73;0.60;;;6.80;99.90;;;;;;4100863;28;20567;-85
2020/12/21 06:45:41;;;;;;;2.60;1.77;;;6.80;99.90;;;;;;4105987;28;20468;-85
2020/12/21 06:47:42;;;;;;;0.60;0.60;;;6.80;99.90;;;;;;4086449;29;20056;-85
2020/12/21 06:49:43;;;;;;;1.17;1.08;;;6.80;99.90;;;;;;4109276;28;20134;-84
2020/12/21 06:51:47;;;;;;;1.52;1.35;;;6.80;99.90;;;;;;4089222;28;20596;-85
2020/12/21 06:54:01;;;;;;;2.60;1.95;;;6.70;99.90;;;;;;4101105;28;20147;-86
2020/12/21 06:56:12;;;;;;;0.55;0.50;;;6.70;99.90;;;;;;4132132;28;20085;-83
2020/12/21 06:58:15;;;;;;;4.28;1.48;;;6.80;99.90;;;;;;4113155;28;20059;-82
2020/12/21 07:00:20;;;;;;;1.65;1.40;;;6.70;99.90;;;;;;4104987;28;20231;-86
2020/12/21 07:02:21;;;;;;;1.65;0.98;;;6.70;99.90;;;;;;4116713;28;20418;-83
2020/12/21 07:04:28;;;;;;;1.20;1.00;;;6.60;99.90;;;;;;4100314;28;20044;-83
2020/12/21 07:06:29;;;;;;;9.52;1.10;;;6.60;99.90;;;;;;4106457;28;20594;-83
2020/12/21 07:08:30;;;;;;;0.90;0.60;;;6.50;99.90;;;;;;4134396;28;20126;-83
2020/12/21 07:10:32;;;;;;;2.90;1.23;;;6.50;99.90;;;;;;4132983;28;20137;-82
2020/12/21 07:12:33;;;;;;;0.30;0.30;;;6.50;99.90;;;;;;4131940;28;20038;-83
2020/12/21 07:14:37;;;;;;;1.38;0.55;;;6.50;99.90;;;;;;4119737;28;20414;-83
2020/12/21 07:16:39;;;;;;;2.03;1.03;;;6.40;99.90;;;;;;4105010;28;20039;-83
2020/12/21 07:18:40;;;;;;;3.60;1.02;;;6.40;99.90;;;;;;4113454;28;20454;-83
2020/12/21 07:20:41;;;;;;;1.33;1.20;;;6.40;99.90;;;;;;4112327;28;20065;-82
2020/12/21 07:22:43;;;;;;;4.65;1.92;;;6.40;99.90;;;;;;4125151;28;20054;-85
2020/12/21 07:24:44;;;;;;;1.20;0.60;;;6.40;99.90;;;;;;4107059;28;20078;-83
2020/12/21 07:26:45;;;;;;;1.55;1.13;;;6.30;99.90;;;;;;4100525;28;20054;-82
2020/12/21 07:28:47;;;;;;;0.60;0.60;;;6.30;99.90;;;;;;4115498;28;20046;-83
2020/12/21 07:30:48;;;;;;;0.63;0.60;;;6.30;99.90;;;;;;4115731;28;20130;-83
2020/12/21 07:32:50;;;;;;;3.22;1.58;;;6.20;99.90;;;;;;4133517;28;20050;-83
2020/12/21 07:34:52;;;;;;;1.35;0.75;;;6.20;99.90;;;;;;4123755;28;20533;-91
2020/12/21 07:36:53;;;;;;;3.40;1.27;;;6.20;99.90;;;;;;4130273;28;20050;-84
2020/12/21 07:39:14;;;;;;;0.43;0.43;;;6.20;99.90;;;;;;4100375;28;20055;-83
2020/12/21 07:41:16;;;;;;;0.38;0.38;;;6.20;99.90;;;;;;4120811;28;20047;-82
2020/12/21 07:43:21;;;;;;;3.05;0.98;;;6.10;99.90;;;;;;4124050;28;20125;-83
2020/12/21 07:45:23;;;;;;;1.08;1.02;;;6.10;99.90;;;;;;4104533;28;20540;-83
2020/12/21 07:47:32;;;;;;;1.60;1.35;;;6.20;99.90;;;;;;4115433;28;20054;-83
2020/12/21 07:49:34;;;;;;;1.17;0.82;;;6.20;99.90;;;;;;4095460;28;20043;-82
2020/12/21 07:51:37;;;;;;;2.42;1.13;;;6.20;99.90;;;;;;4115338;28;20129;-82
2020/12/21 07:53:42;;;;;;;12.52;1.30;;;6.10;99.90;;;;;;4115699;28;20541;-84
2020/12/21 07:55:54;;;;;;;2.67;2.47;;;6.10;99.90;;;;;;4093684;28;20528;-85
2020/12/21 07:57:56;;;;;;;0.73;0.73;;;6.30;99.90;;;;;;4099769;28;20078;-83
2020/12/21 08:00:00;;;;;;;0.93;0.93;;;6.30;99.90;;;;;;4131753;28;20522;-83
2020/12/21 08:02:03;;;;;;;1.48;1.23;;;6.30;99.90;;;;;;4106732;28;20055;-84
2020/12/21 08:04:15;;;;;;;1.15;0.60;;;6.30;99.90;;;;;;4126236;28;20077;-88
2020/12/21 08:06:18;;;;;;;4.13;1.70;;;6.30;99.90;;;;;;4116560;28;20050;-90
2020/12/21 08:08:25;;;;;;;;;;;6.30;99.90;;;;;;4118283;28;20526;-89
2020/12/21 08:10:26;;;;;;;0.55;0.50;;;6.30;99.90;;;;;;4117472;28;19922;-87
2020/12/21 08:12:30;;;;;;;0.60;0.60;;;6.30;99.90;;;;;;4132366;28;20621;-86
2020/12/21 08:14:32;;;;;;;0.75;0.40;;;6.30;99.90;;;;;;4130586;28;20088;-89
2020/12/21 08:16:33;;;;;;;0.43;0.43;;;6.30;99.90;;;;;;4131438;28;20092;-89
2020/12/21 08:18:35;;;;;;;0.55;0.55;;;6.20;99.90;;;;;;4097925;29;20445;-87
2020/12/21 08:20:42;;;;;;;1.23;1.00;;;6.30;99.90;;;;;;4115172;28;20058;-88
2020/12/21 08:22:43;;;;;;;0.85;0.85;;;6.40;99.90;;;;;;4132533;28;20056;-90
2020/12/21 08:24:44;;;;;;;1.10;0.75;;;6.40;99.90;;;;;;4132065;28;20425;-93
2020/12/21 08:26:46;;;;;;;1.00;0.88;;;6.50;99.90;;;;;;4104810;28;20135;-85
2020/12/21 08:28:49;;;;;;;1.30;1.13;;;6.50;99.90;;;;;;4098358;28;20050;-88
2020/12/21 08:30:50;;;;;;;0.75;0.60;;;6.50;99.90;;;;;;4093791;28;20134;-86
2020/12/21 08:32:52;;;;;;;0.30;0.30;;;6.50;99.90;;;;;;4116097;28;20051;-87
2020/12/21 08:34:58;;;;;;;1.45;1.35;;;6.50;99.90;;;;;;4090866;28;20051;-87
2020/12/21 08:36:59;;;;;;;0.70;0.40;;;6.50;99.90;;;;;;4113086;28;20055;-86
2020/12/21 08:39:19;;;;;;;0.95;0.95;;;6.50;99.90;;;;;;4115728;28;20049;-86
2020/12/21 08:41:20;;;;;;;0.82;0.82;;;6.60;99.90;;;;;;4128853;28;20060;-87
2020/12/21 08:43:22;;;;;;;1.02;0.98;;;6.60;99.90;;;;;;4111591;28;20059;-90
2020/12/21 08:45:23;;;;;;;1.52;1.42;;;6.60;99.90;;;;;;4106517;28;20042;-91
2020/12/21 08:47:24;;;;;;;1.83;1.08;;;6.60;99.90;;;;;;4117131;28;20055;-92
2020/12/21 08:49:27;;;;;;;1.02;0.90;;;6.70;99.90;;;;;;4115607;28;20053;-91
2020/12/21 08:51:28;;;;;;;1.77;1.05;;;6.70;99.90;;;;;;4099769;28;20089;-87
2020/12/21 08:53:29;;;;;;;2.80;0.73;;;6.70;99.90;;;;;;4100237;28;20250;-85
2020/12/21 08:55:31;;;;;;;0.52;0.52;;;6.70;99.90;;;;;;4114837;28;20134;-87
2020/12/21 08:57:33;;;;;;;2.35;1.23;;;6.80;99.90;;;;;;4109999;28;20047;-88
2020/12/21 08:59:36;;;;;;;0.98;0.47;;;6.70;99.90;;;;;;4130089;28;20537;-87
2020/12/21 09:01:41;;;;;;;1.60;1.50;;;6.70;99.90;;;;;;4113091;28;20047;-89
2020/12/21 09:03:43;;;;;;;;;;;6.70;99.90;;;;;;4099527;28;20135;-87
2020/12/21 09:05:45;;;;;;;1.30;1.00;;;6.70;99.90;;;;;;4115690;28;20424;-87
2020/12/21 09:07:46;;;;;;;1.52;1.42;;;6.70;99.90;;;;;;4114487;28;20114;-87
2020/12/21 09:09:49;;;;;;;1.58;1.20;;;6.70;99.90;;;;;;4131326;28;20076;-87
2020/12/21 09:11:53;;;;;;;1.00;1.00;;;6.70;99.90;;;;;;4100098;28;20047;-87
2020/12/21 09:13:55;;;;;;;1.63;1.52;;;6.80;99.90;;;;;;4106536;28;20053;-87
2020/12/21 09:15:56;;;;;;;1.45;1.35;;;6.70;99.90;;;;;;4123459;28;20047;-86
2020/12/21 09:17:57;;;;;;;1.98;1.75;;;6.80;99.90;;;;;;4117724;28;20066;-92
2020/12/21 09:19:59;;;;;;;4.85;1.95;;;6.80;99.90;;;;;;4122427;28;20054;-90
2020/12/21 09:22:01;;;;;;;3.83;1.73;;;6.80;99.90;;;;;;4109287;28;20050;-89
2020/12/21 09:24:03;;;;;;;0.73;0.73;;;6.90;99.90;;;;;;4130589;28;20057;-86
2020/12/21 09:26:04;;;;;;;1.70;1.60;;;6.90;99.90;;;;;;4131773;28;20113;-88
2020/12/21 09:28:06;;;;;;;1.63;0.60;;;6.90;99.90;;;;;;4112821;28;20046;-88
2020/12/21 09:30:07;;;;;;;1.45;1.15;;;6.90;99.90;;;;;;4109670;28;20133;-88
2020/12/21 09:32:08;;;;;;;1.17;1.05;;;7.00;99.90;;;;;;4115576;28;20050;-87
2020/12/21 09:34:10;;;;;;;1.30;0.95;;;7.00;99.90;;;;;;4112127;28;20061;-87
2020/12/21 09:36:11;;;;;;;0.32;0.30;;;7.00;99.90;;;;;;4118879;28;20054;-88
2020/12/21 09:38:12;;;;;;;2.70;1.30;;;7.10;99.90;;;;;;4105273;28;20127;-88
2020/12/21 09:40:14;;;;;;;1.00;1.00;;;7.10;99.90;;;;;;4095059;28;20047;-89
2020/12/21 09:42:16;;;;;;;3.15;1.02;;;7.20;99.90;;;;;;4112412;28;20113;-88
2020/12/21 09:44:17;;;;;;;0.82;0.50;;;7.20;99.90;;;;;;4109127;28;20492;-85
2020/12/21 09:46:23;;;;;;;1.30;0.85;;;7.20;99.90;;;;;;4105899;28;20051;-88
2020/12/21 09:48:25;;;;;;;1.17;0.95;;;7.30;99.90;;;;;;4094005;28;20057;-91
2020/12/21 09:50:26;;;;;;;2.38;1.02;;;7.30;99.90;;;;;;4109315;28;20069;-93
2020/12/21 09:52:28;;;;;;;1.27;1.17;;;7.30;99.90;;;;;;4109935;28;20046;-87
2020/12/21 09:54:30;;;;;;;1.58;1.48;;;7.30;99.90;;;;;;4114981;28;20051;-90
2020/12/21 09:56:31;;;;;;;0.75;0.60;;;7.30;99.90;;;;;;4114608;28;20089;-92
2020/12/21 09:58:32;;;;;;;1.35;0.80;;;7.40;99.90;;;;;;4097791;28;20059;-92
2020/12/21 10:00:34;;;;;;;0.80;0.60;;;7.40;99.90;;;;;;4123342;28;20074;-88
2020/12/21 10:02:35;;;;;;;1.63;1.15;;;7.40;99.90;;;;;;4113379;28;20049;-88
2020/12/21 10:04:37;;;;;;;0.52;0.50;;;7.50;99.90;;;;;;4130842;28;20046;-90
2020/12/21 10:06:39;;;;;;;1.35;0.77;;;7.50;99.90;;;;;;4131296;28;20148;-88
2020/12/21 10:08:40;;;;;;;1.45;1.10;;;7.60;99.90;;;;;;4116764;28;20439;-88
2020/12/21 10:10:41;;;;;;;0.50;0.50;;;7.60;99.90;;;;;;4110336;28;20047;-89
2020/12/21 10:12:43;;;;;;;1.92;0.90;;;7.60;99.90;;;;;;4110753;28;20054;-89
2020/12/21 10:14:44;;;;;;;1.58;0.88;;;7.70;99.90;;;;;;4125604;28;20053;-85
2020/12/21 10:16:45;;;;;;;1.20;0.85;;;7.70;99.90;;;;;;4140965;28;20058;-92
2020/12/21 10:18:47;;;;;;;1.02;0.50;;;7.70;99.90;;;;;;4131745;28;20537;-87
2020/12/21 10:20:48;;;;;;;3.55;0.65;;;7.80;99.90;;;;;;4133211;28;20519;-89
2020/12/21 10:22:49;;;;;;;1.50;1.40;;;7.80;99.90;;;;;;4101071;28;20050;-91
2020/12/21 10:24:50;;;;;;;0.35;0.35;;;7.90;99.90;;;;;;4116213;28;20047;-92
2020/12/21 10:26:51;;;;;;;1.13;0.60;;;7.90;99.90;;;;;;4118371;28;20621;-91
2020/12/21 10:28:53;;;;;;;1.30;0.90;;;7.90;99.90;;;;;;4097732;28;20127;-91
2020/12/21 10:30:54;;;;;;;1.80;1.38;;;8.00;99.90;;;;;;4122385;28;20049;-91
2020/12/21 10:32:55;;;;;;;1.15;0.45;;;8.00;99.90;;;;;;4134053;28;20146;-90
2020/12/21 10:34:56;;;;;;;1.05;0.70;;;8.10;99.90;;;;;;4094853;28;20058;-91
2020/12/21 10:36:58;;;;;;;1.65;0.98;;;8.10;99.90;;;;;;4111120;28;20466;-89
2020/12/21 10:38:59;;;;;;;1.60;1.33;;;8.10;99.90;;;;;;4147170;28;20053;-89
2020/12/21 10:41:00;;;;;;;0.55;0.52;;;8.20;99.90;;;;;;4133568;28;20045;-91
2020/12/21 10:43:02;;;;;;;1.65;0.68;;;8.20;99.90;;;;;;4141420;28;20058;-90
2020/12/21 10:45:03;;;;;;;0.98;0.40;;;8.20;99.90;;;;;;4120931;28;20137;-90
2020/12/21 10:47:04;;;;;;;1.70;1.27;;;8.30;99.90;;;;;;4119384;28;20141;-92